createdAt,value
2018-04-01T00:02:05.192Z,99716.98
2018-04-01T00:04:32.260Z,99717.77
2018-04-01T00:06:59.355Z,99717.28
2018-04-01T00:09:26.429Z,99717.77
2018-04-01T00:11:53.519Z,99713.08
2018-04-01T00:14:20.640Z,99714.36
2018-04-01T00:16:47.799Z,99723.77
2018-04-01T00:19:14.870Z,99723.40
2018-04-01T00:21:42.004Z,99720.41
2018-04-01T00:24:09.077Z,99719.93
2018-04-01T00:26:36.192Z,99719.98
2018-04-01T00:29:03.344Z,99718.28
2018-04-01T00:31:30.429Z,99714.88
2018-04-01T00:33:57.497Z,99718.77
2018-04-01T00:36:24.693Z,99718.78
2018-04-01T00:38:51.855Z,99718.30
2018-04-01T00:41:18.944Z,99713.17
2018-04-01T00:43:46.045Z,99715.23
2018-04-01T00:46:13.128Z,99719.08
2018-04-01T00:48:40.197Z,99713.09
2018-04-01T00:51:07.288Z,99713.96
2018-04-01T00:53:34.375Z,99715.22
2018-04-01T00:56:01.497Z,99708.38
2018-04-01T00:58:28.640Z,99714.31
2018-04-01T01:00:55.704Z,99713.38
2018-04-01T01:03:22.845Z,99708.66
2018-04-01T01:05:49.920Z,99706.89
2018-04-01T01:08:17.008Z,99704.69
2018-04-01T01:10:44.072Z,99710.22
2018-04-01T01:13:11.160Z,99705.44
2018-04-01T01:15:38.225Z,99702.81
2018-04-01T01:18:05.329Z,99702.77
2018-04-01T01:20:32.412Z,99702.25
2018-04-01T01:22:59.500Z,99702.12
2018-04-01T01:25:26.586Z,99701.61
2018-04-01T01:27:53.673Z,99696.84
2018-04-01T01:30:20.735Z,99692.05
2018-04-01T01:32:47.816Z,99691.14
2018-04-01T01:35:14.884Z,99682.09
2018-04-01T01:37:42.037Z,99689.70
2018-04-01T01:40:09.100Z,99688.83
2018-04-01T01:42:36.185Z,99686.63
2018-04-01T01:45:03.248Z,99686.13
2018-04-01T01:47:30.334Z,99684.41
2018-04-01T01:49:57.472Z,99689.89
2018-04-01T01:52:24.551Z,99684.34
2018-04-01T01:54:51.618Z,99684.75
2018-04-01T01:57:18.713Z,99684.78
2018-04-01T01:59:45.880Z,99684.36
2018-04-01T02:02:12.966Z,99680.16
2018-04-01T02:04:40.046Z,99683.58
2018-04-01T02:07:07.224Z,99686.56
2018-04-01T02:09:34.386Z,99681.08
2018-04-01T02:12:01.477Z,99680.23
2018-04-01T02:14:28.547Z,99672.14
2018-04-01T02:16:55.734Z,99673.41
2018-04-01T02:19:22.796Z,99670.42
2018-04-01T02:21:49.874Z,99674.70
2018-04-01T02:24:16.964Z,99679.02
2018-04-01T02:26:44.024Z,99671.34
2018-04-01T02:29:11.140Z,99668.31
2018-04-01T02:31:38.291Z,99667.87
2018-04-01T02:34:05.317Z,99672.13
2018-04-01T02:36:32.380Z,99673.84
2018-04-01T02:38:59.469Z,99674.32
2018-04-01T02:41:26.623Z,99675.61
2018-04-01T02:43:53.774Z,99679.47
2018-04-01T02:46:20.936Z,99672.61
2018-04-01T02:48:48.016Z,99669.20
2018-04-01T02:51:15.092Z,99667.45
2018-04-01T02:53:42.169Z,99667.44
2018-04-01T02:56:09.248Z,99664.46
2018-04-01T02:58:36.332Z,99669.56
2018-04-01T03:01:03.393Z,99665.68
2018-04-01T03:03:30.479Z,99665.30
2018-04-01T03:05:57.540Z,99663.52
2018-04-01T03:08:24.674Z,99657.48
2018-04-01T03:10:51.741Z,99662.16
2018-04-01T03:13:18.836Z,99656.20
2018-04-01T03:15:45.892Z,99651.02
2018-04-01T03:18:12.981Z,99657.83
2018-04-01T03:20:40.045Z,99646.66
2018-04-01T03:23:07.127Z,99653.47
2018-04-01T03:25:34.193Z,99653.89
2018-04-01T03:28:01.360Z,99653.41
2018-04-01T03:30:28.421Z,99654.28
2018-04-01T03:32:55.560Z,99661.95
2018-04-01T03:35:22.624Z,99656.88
2018-04-01T03:37:49.758Z,99659.02
2018-04-01T03:40:16.817Z,99656.48
2018-04-01T03:42:43.895Z,99659.52
2018-04-01T03:45:11.013Z,99662.09
2018-04-01T03:47:38.097Z,99658.27
2018-04-01T03:50:05.155Z,99664.30
2018-04-01T03:52:32.257Z,99658.34
2018-04-01T03:54:59.353Z,99666.45
2018-04-01T03:57:26.416Z,99664.36
2018-04-01T03:59:53.500Z,99664.80
2018-04-01T04:02:20.572Z,99662.60
2018-04-01T04:04:47.666Z,99662.62
2018-04-01T04:07:14.727Z,99670.77
2018-04-01T04:09:41.899Z,99672.92
2018-04-01T04:12:08.964Z,99668.23
2018-04-01T04:14:36.100Z,99667.34
2018-04-01T04:17:03.159Z,99665.17
2018-04-01T04:19:30.244Z,99661.81
2018-04-01T04:21:57.342Z,99667.34
2018-04-01T04:24:24.518Z,99667.78
2018-04-01T04:26:51.585Z,99668.72
2018-04-01T04:29:18.673Z,99670.77
2018-04-01T04:31:45.737Z,99677.16
2018-04-01T04:34:12.819Z,99678.38
2018-04-01T04:36:39.875Z,99676.66
2018-04-01T04:39:06.960Z,99681.77
2018-04-01T04:41:34.078Z,99681.69
2018-04-01T04:44:01.160Z,99679.98
2018-04-01T04:46:28.220Z,99678.64
2018-04-01T04:48:55.389Z,99675.66
2018-04-01T04:51:22.457Z,99676.08
2018-04-01T04:53:49.546Z,99674.79
2018-04-01T04:56:16.616Z,99676.88
2018-04-01T04:58:43.699Z,99680.28
2018-04-01T05:01:10.761Z,99688.47
2018-04-01T05:03:37.849Z,99680.34
2018-04-01T05:06:04.919Z,99690.15
2018-04-01T05:08:32.008Z,99687.53
2018-04-01T05:10:59.131Z,99702.52
2018-04-01T05:13:26.211Z,99699.09
2018-04-01T05:15:53.341Z,99698.26
2018-04-01T05:18:20.429Z,99699.11
2018-04-01T05:20:47.495Z,99703.39
2018-04-01T05:23:14.557Z,99696.61
2018-04-01T05:25:41.646Z,99702.17
2018-04-01T05:28:08.779Z,99705.07
2018-04-01T05:30:35.861Z,99703.44
2018-04-01T05:33:02.916Z,99710.69
2018-04-01T05:35:30.022Z,99718.35
2018-04-01T05:37:57.084Z,99721.28
2018-04-01T05:40:24.223Z,99726.41
2018-04-01T05:42:51.297Z,99728.94
2018-04-01T05:45:18.385Z,99728.08
2018-04-01T05:47:45.452Z,99728.09
2018-04-01T05:50:12.624Z,99738.67
2018-04-01T05:52:39.684Z,99731.44
2018-04-01T05:55:06.763Z,99743.80
2018-04-01T05:57:33.823Z,99750.25
2018-04-01T06:00:00.921Z,99749.36
2018-04-01T06:02:27.981Z,99758.31
2018-04-01T06:04:55.068Z,99753.24
2018-04-01T06:07:22.133Z,99772.03
2018-04-01T06:09:49.384Z,99766.55
2018-04-01T06:12:16.443Z,99758.55
2018-04-01T06:14:43.529Z,99767.14
2018-04-01T06:17:10.672Z,99768.59
2018-04-01T06:19:37.821Z,99771.58
2018-04-01T06:22:04.879Z,99773.77
2018-04-01T06:24:31.981Z,99774.23
2018-04-01T06:26:59.049Z,99774.81
2018-04-01T06:29:26.135Z,99780.86
2018-04-01T06:31:53.262Z,99781.86
2018-04-01T06:34:20.353Z,99790.88
2018-04-01T06:36:47.468Z,99785.28
2018-04-01T06:39:14.568Z,99789.64
2018-04-01T06:41:41.627Z,99796.09
2018-04-01T06:44:08.721Z,99800.36
2018-04-01T06:46:35.812Z,99800.00
2018-04-01T06:49:02.911Z,99802.20
2018-04-01T06:51:29.991Z,99808.71
2018-04-01T06:53:57.054Z,99814.34
2018-04-01T06:56:24.144Z,99815.78
2018-04-01T06:58:51.317Z,99817.92
2018-04-01T07:01:18.398Z,99828.67
2018-04-01T07:03:45.456Z,99823.97
2018-04-01T07:06:12.540Z,99817.11
2018-04-01T07:08:39.602Z,99821.38
2018-04-01T07:11:06.765Z,99828.23
2018-04-01T07:13:33.824Z,99823.55
2018-04-01T07:16:00.956Z,99832.20
2018-04-01T07:18:28.012Z,99835.21
2018-04-01T07:20:55.105Z,99838.77
2018-04-01T07:23:22.200Z,99843.97
2018-04-01T07:25:49.285Z,99844.81
2018-04-01T07:28:16.348Z,99849.98
2018-04-01T07:30:43.456Z,99859.45
2018-04-01T07:33:10.517Z,99860.36
2018-04-01T07:35:37.607Z,99860.36
2018-04-01T07:38:04.663Z,99871.48
2018-04-01T07:40:31.757Z,99872.89
2018-04-01T07:42:58.815Z,99869.92
2018-04-01T07:45:25.902Z,99879.80
2018-04-01T07:47:52.991Z,99871.69
2018-04-01T07:50:20.080Z,99880.75
2018-04-01T07:52:47.149Z,99884.17
2018-04-01T07:55:14.241Z,99884.94
2018-04-01T07:57:41.295Z,99885.27
2018-04-01T08:00:08.439Z,99889.55
2018-04-01T08:02:35.500Z,99889.96
2018-04-01T08:05:02.586Z,99900.58
2018-04-01T08:07:29.643Z,99904.48
2018-04-01T08:09:56.753Z,99905.33
2018-04-01T08:12:23.824Z,99907.92
2018-04-01T08:14:50.890Z,99916.45
2018-04-01T08:17:18.085Z,99917.73
2018-04-01T08:19:45.148Z,99906.64
2018-04-01T08:22:12.223Z,99918.14
2018-04-01T08:24:39.336Z,99919.84
2018-04-01T08:27:06.421Z,99924.47
2018-04-01T08:29:33.635Z,99925.39
2018-04-01T08:32:00.788Z,99930.11
2018-04-01T08:34:27.939Z,99938.73
2018-04-01T08:36:55.028Z,99944.28
2018-04-01T08:39:22.145Z,99946.03
2018-04-01T08:41:49.224Z,99945.55
2018-04-01T08:44:16.335Z,99955.89
2018-04-01T08:46:43.589Z,99957.58
2018-04-01T08:49:10.657Z,99961.84
2018-04-01T08:51:37.797Z,99967.47
2018-04-01T08:54:04.940Z,99968.01
2018-04-01T08:56:32.091Z,99968.48
2018-04-01T08:58:59.148Z,99976.71
2018-04-01T09:01:26.236Z,99974.62
2018-04-01T09:03:53.300Z,99987.89
2018-04-01T09:06:20.487Z,99977.70
2018-04-01T09:08:47.553Z,99986.41
2018-04-01T09:11:14.636Z,99994.62
2018-04-01T09:13:41.709Z,100002.05
2018-04-01T09:16:08.888Z,99996.62
2018-04-01T09:18:35.957Z,99991.95
2018-04-01T09:21:03.088Z,100004.50
2018-04-01T09:23:30.236Z,100002.78
2018-04-01T09:25:57.328Z,100010.91
2018-04-01T09:28:24.437Z,100005.08
2018-04-01T09:30:51.536Z,100013.22
2018-04-01T09:33:18.638Z,100014.98
2018-04-01T09:35:45.785Z,100015.42
2018-04-01T09:38:12.937Z,100018.82
2018-04-01T09:40:40.088Z,100024.83
2018-04-01T09:43:07.171Z,100017.18
2018-04-01T09:45:34.297Z,100022.27
2018-04-01T09:48:01.440Z,100023.08
2018-04-01T09:50:28.517Z,100026.85
2018-04-01T09:52:55.609Z,100024.72
2018-04-01T09:55:22.672Z,100030.65
2018-04-01T09:57:49.759Z,100034.56
2018-04-01T10:00:22.297Z,100045.15
2018-04-01T10:02:49.922Z,100050.56
2018-04-01T10:05:17.529Z,100055.16
2018-04-01T10:07:45.151Z,100057.67
2018-04-01T10:10:12.860Z,100062.80
2018-04-01T10:12:40.498Z,100062.78
2018-04-01T10:15:08.105Z,100078.14
2018-04-01T10:17:35.847Z,100064.48
2018-04-01T10:20:03.490Z,100071.81
2018-04-01T10:22:31.180Z,100067.11
2018-04-01T10:24:58.846Z,100076.10
2018-04-01T10:27:26.500Z,100079.58
2018-04-01T10:29:54.165Z,100082.95
2018-04-01T10:32:21.792Z,100087.78
2018-04-01T10:34:49.398Z,100088.24
2018-04-01T10:37:17.020Z,100097.78
2018-04-01T10:39:44.712Z,100096.16
2018-04-01T10:42:12.336Z,100104.38
2018-04-01T10:44:39.944Z,100100.19
2018-04-01T10:47:07.608Z,100103.59
2018-04-01T10:49:35.224Z,100111.64
2018-04-01T10:52:02.847Z,100115.48
2018-04-01T10:54:29.908Z,100112.39
2018-04-01T10:56:57.006Z,100116.31
2018-04-01T10:59:24.074Z,100114.53
2018-04-01T11:01:51.229Z,100128.97
2018-04-01T11:04:18.296Z,100123.27
2018-04-01T11:06:45.384Z,100124.45
2018-04-01T11:09:12.464Z,100132.54
2018-04-01T11:11:39.629Z,100129.06
2018-04-01T11:14:06.772Z,100134.61
2018-04-01T11:16:33.841Z,100138.78
2018-04-01T11:19:00.968Z,100133.23
2018-04-01T11:21:28.032Z,100138.38
2018-04-01T11:23:55.126Z,100141.80
2018-04-01T11:26:22.203Z,100146.47
2018-04-01T11:28:49.301Z,100154.95
2018-04-01T11:31:16.404Z,100160.16
2018-04-01T11:33:43.577Z,100156.67
2018-04-01T11:36:10.641Z,100159.22
2018-04-01T11:38:37.728Z,100174.66
2018-04-01T11:41:04.815Z,100166.45
2018-04-01T11:43:31.968Z,100166.31
2018-04-01T11:45:59.116Z,100172.70
2018-04-01T11:48:26.278Z,100175.71
2018-04-01T11:50:53.460Z,100171.77
2018-04-01T11:53:20.577Z,100177.72
2018-04-01T11:55:47.722Z,100173.80
2018-04-01T11:58:14.812Z,100170.80
2018-04-01T12:00:41.875Z,100183.14
2018-04-01T12:03:08.960Z,100189.50
2018-04-01T12:05:36.021Z,100190.31
2018-04-01T12:08:03.173Z,100186.45
2018-04-01T12:10:30.232Z,100183.95
2018-04-01T12:12:57.320Z,100192.87
2018-04-01T12:15:24.392Z,100187.75
2018-04-01T12:17:51.476Z,100193.19
2018-04-01T12:20:18.540Z,100196.19
2018-04-01T12:22:45.632Z,100199.59
2018-04-01T12:25:12.693Z,100199.42
2018-04-01T12:27:39.781Z,100200.69
2018-04-01T12:30:06.909Z,100200.69
2018-04-01T12:32:34.063Z,100205.74
2018-04-01T12:35:01.212Z,100204.80
2018-04-01T12:37:28.462Z,100204.88
2018-04-01T12:39:55.623Z,100205.70
2018-04-01T12:42:22.714Z,100211.19
2018-04-01T12:44:49.777Z,100209.06
2018-04-01T12:47:16.853Z,100213.83
2018-04-01T12:49:43.948Z,100213.83
2018-04-01T12:52:11.007Z,100218.03
2018-04-01T12:54:38.102Z,100216.33
2018-04-01T12:57:05.164Z,100221.02
2018-04-01T12:59:32.257Z,100219.31
2018-04-01T13:01:59.356Z,100217.67
2018-04-01T13:04:26.515Z,100215.62
2018-04-01T13:06:53.576Z,100220.94
2018-04-01T13:09:20.709Z,100219.31
2018-04-01T13:11:47.779Z,100227.98
2018-04-01T13:14:14.907Z,100230.20
2018-04-01T13:16:41.977Z,100229.78
2018-04-01T13:19:09.062Z,100233.35
2018-04-01T13:21:36.159Z,100233.05
2018-04-01T13:24:03.252Z,100233.61
2018-04-01T13:26:30.364Z,100236.36
2018-04-01T13:28:57.455Z,100234.00
2018-04-01T13:31:24.528Z,100235.37
2018-04-01T13:33:51.709Z,100235.95
2018-04-01T13:36:18.861Z,100244.42
2018-04-01T13:38:45.947Z,100251.27
2018-04-01T13:41:13.056Z,100256.03
2018-04-01T13:43:40.169Z,100255.20
2018-04-01T13:46:07.252Z,100258.27
2018-04-01T13:48:34.336Z,100255.61
2018-04-01T13:51:01.405Z,100261.23
2018-04-01T13:53:28.498Z,100262.95
2018-04-01T13:55:55.656Z,100267.73
2018-04-01T13:58:22.814Z,100265.17
2018-04-01T14:00:49.951Z,100263.42
2018-04-01T14:03:17.119Z,100268.69
2018-04-01T14:05:44.184Z,100268.69
2018-04-01T14:08:11.272Z,100266.98
2018-04-01T14:10:38.364Z,100269.47
2018-04-01T14:13:05.423Z,100273.73
2018-04-01T14:15:32.517Z,100271.53
2018-04-01T14:17:59.591Z,100287.77
2018-04-01T14:20:26.680Z,100291.09
2018-04-01T14:22:53.745Z,100288.44
2018-04-01T14:25:20.838Z,100291.75
2018-04-01T14:27:48.025Z,100301.56
2018-04-01T14:30:15.226Z,100309.17
2018-04-01T14:32:42.303Z,100308.33
2018-04-01T14:35:09.388Z,100311.73
2018-04-01T14:37:36.456Z,100307.80
2018-04-01T14:40:03.557Z,100316.67
2018-04-01T14:42:30.620Z,100324.22
2018-04-01T14:44:57.712Z,100333.50
2018-04-01T14:47:24.775Z,100330.32
2018-04-01T14:49:51.864Z,100330.75
2018-04-01T14:52:18.940Z,100339.31
2018-04-01T14:54:46.035Z,100335.47
2018-04-01T14:57:13.097Z,100339.77
2018-04-01T14:59:40.189Z,100333.89
2018-04-01T15:02:07.260Z,100340.30
2018-04-01T15:04:34.345Z,100339.80
2018-04-01T15:07:01.407Z,100341.40
2018-04-01T15:09:28.535Z,100346.47
2018-04-01T15:11:55.688Z,100351.03
2018-04-01T15:14:22.781Z,100347.14
2018-04-01T15:16:49.860Z,100350.53
2018-04-01T15:19:17.041Z,100349.66
2018-04-01T15:21:44.103Z,100351.27
2018-04-01T15:24:11.240Z,100357.58
2018-04-01T15:26:38.300Z,100359.73
2018-04-01T15:29:05.440Z,100357.91
2018-04-01T15:31:32.509Z,100362.06
2018-04-01T15:33:59.605Z,100363.73
2018-04-01T15:36:26.687Z,100370.98
2018-04-01T15:38:53.747Z,100367.89
2018-04-01T15:41:20.847Z,100379.37
2018-04-01T15:43:47.916Z,100374.25
2018-04-01T15:46:15.007Z,100372.60
2018-04-01T15:48:42.072Z,100374.73
2018-04-01T15:51:09.163Z,100376.84
2018-04-01T15:53:36.337Z,100379.81
2018-04-01T15:56:03.423Z,100387.94
2018-04-01T15:58:30.497Z,100401.91
2018-04-01T16:00:57.585Z,100391.52
2018-04-01T16:03:24.736Z,100399.16
2018-04-01T16:05:51.823Z,100395.66
2018-04-01T16:08:18.937Z,100399.08
2018-04-01T16:10:46.024Z,100400.32
2018-04-01T16:13:13.137Z,100398.44
2018-04-01T16:15:40.228Z,100411.13
2018-04-01T16:18:07.291Z,100408.03
2018-04-01T16:20:34.380Z,100412.23
2018-04-01T16:23:01.440Z,100413.91
2018-04-01T16:25:28.524Z,100407.84
2018-04-01T16:27:55.593Z,100411.25
2018-04-01T16:30:22.686Z,100408.95
2018-04-01T16:32:49.828Z,100405.95
2018-04-01T16:35:16.971Z,100409.89
2018-04-01T16:37:44.043Z,100409.85
2018-04-01T16:40:11.131Z,100408.56
2018-04-01T16:42:38.219Z,100417.16
2018-04-01T16:45:05.312Z,100413.30
2018-04-01T16:47:32.372Z,100420.95
2018-04-01T16:49:59.461Z,100413.30
2018-04-01T16:52:26.533Z,100416.73
2018-04-01T16:54:53.643Z,100420.16
2018-04-01T16:57:20.705Z,100432.21
2018-04-01T16:59:47.771Z,100433.59
2018-04-01T17:02:14.855Z,100433.20
2018-04-01T17:04:41.953Z,100438.26
2018-04-01T17:07:09.048Z,100446.35
2018-04-01T17:09:36.253Z,100447.58
2018-04-01T17:12:03.285Z,100454.45
2018-04-01T17:14:30.361Z,100449.25
2018-04-01T17:16:57.449Z,100461.61
2018-04-01T17:19:24.560Z,100460.34
2018-04-01T17:21:51.647Z,100460.27
2018-04-01T17:24:18.769Z,100458.56
2018-04-01T17:26:45.871Z,100466.72
2018-04-01T17:29:12.944Z,100467.08
2018-04-01T17:31:40.224Z,100467.82
2018-04-01T17:34:07.287Z,100470.79
2018-04-01T17:36:34.373Z,100472.94
2018-04-01T17:39:01.464Z,100472.48
2018-04-01T17:41:28.556Z,100469.95
2018-04-01T17:43:55.670Z,100476.25
2018-04-01T17:46:22.817Z,100483.01
2018-04-01T17:48:49.970Z,100477.88
2018-04-01T17:51:17.058Z,100495.35
2018-04-01T17:53:44.169Z,100497.91
2018-04-01T17:56:12.823Z,100498.22
2018-04-01T17:58:39.896Z,100501.14
2018-04-01T18:01:06.980Z,100501.14
2018-04-01T18:03:34.039Z,100505.37
2018-04-01T18:06:01.137Z,100509.62
2018-04-01T18:08:28.208Z,100514.20
2018-04-01T18:10:55.296Z,100517.14
2018-04-01T18:13:22.402Z,100510.73
2018-04-01T18:15:49.544Z,100521.03
2018-04-01T18:18:16.607Z,100522.67
2018-04-01T18:20:43.740Z,100517.88
2018-04-01T18:23:10.824Z,100527.75
2018-04-01T18:25:37.888Z,100529.81
2018-04-01T18:28:04.986Z,100533.32
2018-04-01T18:30:32.144Z,100531.58
2018-04-01T18:32:59.228Z,100538.34
2018-04-01T18:35:26.322Z,100536.19
2018-04-01T18:37:53.420Z,100536.63
2018-04-01T18:40:20.480Z,100545.15
2018-04-01T18:42:47.578Z,100549.83
2018-04-01T18:45:14.744Z,100552.83
2018-04-01T18:47:41.901Z,100554.98
2018-04-01T18:50:09.040Z,100549.81
2018-04-01T18:52:36.197Z,100557.92
2018-04-01T18:55:03.348Z,100553.23
2018-04-01T18:57:30.442Z,100557.02
2018-04-01T18:59:57.503Z,100561.33
2018-04-01T19:02:24.691Z,100555.31
2018-04-01T19:04:51.839Z,100560.81
2018-04-01T19:07:19.001Z,100559.58
2018-04-01T19:09:46.065Z,100564.78
2018-04-01T19:12:13.152Z,100564.89
2018-04-01T19:14:40.244Z,100568.34
2018-04-01T19:17:08.517Z,100570.14
2018-04-01T19:19:36.136Z,100578.25
2018-04-01T19:22:03.759Z,100578.23
2018-04-01T19:24:31.372Z,100582.91
2018-04-01T19:26:59.073Z,100585.63
2018-04-01T19:29:26.685Z,100580.07
2018-04-01T19:31:54.316Z,100587.40
2018-04-01T19:34:22.060Z,100582.69
2018-04-01T19:36:49.688Z,100595.08
2018-04-01T19:39:17.288Z,100589.96
2018-04-01T19:41:44.925Z,100593.84
2018-04-01T19:44:12.523Z,100590.42
2018-04-01T19:46:40.167Z,100596.48
2018-04-01T19:49:07.776Z,100590.52
2018-04-01T19:51:35.384Z,100597.77
2018-04-01T19:54:03.016Z,100597.77
2018-04-01T19:56:30.616Z,100593.52
2018-04-01T19:58:58.245Z,100602.97
2018-04-01T20:01:25.847Z,100601.20
2018-04-01T20:03:53.495Z,100599.50
2018-04-01T20:06:21.105Z,100602.15
2018-04-01T20:08:48.828Z,100603.81
2018-04-01T20:11:16.431Z,100599.16
2018-04-01T20:13:44.405Z,100603.81
2018-04-01T20:16:12.008Z,100600.97
2018-04-01T20:18:39.884Z,100592.14
2018-04-01T20:21:07.647Z,100604.48
2018-04-01T20:23:35.428Z,100610.02
2018-04-01T20:26:03.180Z,100610.80
2018-04-01T20:28:30.844Z,100614.19
2018-04-01T20:30:58.503Z,100612.91
2018-04-01T20:33:26.369Z,100609.94
2018-04-01T20:35:53.982Z,100613.27
2018-04-01T20:38:21.910Z,100615.28
2018-04-01T20:40:49.552Z,100612.31
2018-04-01T20:43:17.225Z,100614.98
2018-04-01T20:45:44.829Z,100608.98
2018-04-01T20:48:12.560Z,100606.50
2018-04-01T20:50:40.220Z,100614.13
2018-04-01T20:53:07.925Z,100608.47
2018-04-01T20:55:35.650Z,100621.66
2018-04-01T20:58:03.436Z,100622.48
2018-04-01T21:00:31.073Z,100627.55
2018-04-01T21:02:58.696Z,100632.66
2018-04-01T21:05:26.332Z,100636.81
2018-04-01T21:07:53.939Z,100640.65
2018-04-01T21:10:21.563Z,100648.33
2018-04-01T21:12:49.180Z,100645.44
2018-04-01T21:15:16.951Z,100651.84
2018-04-01T21:17:44.620Z,100649.17
2018-04-01T21:20:12.243Z,100653.09
2018-04-01T21:22:39.854Z,100646.20
2018-04-01T21:25:07.480Z,100641.91
2018-04-01T21:27:35.080Z,100645.77
2018-04-01T21:30:02.713Z,100656.34
2018-04-01T21:32:30.317Z,100659.72
2018-04-01T21:34:58.053Z,100647.79
2018-04-01T21:37:25.661Z,100649.39
2018-04-01T21:39:53.284Z,100655.77
2018-04-01T21:42:20.881Z,100654.84
2018-04-01T21:44:48.596Z,100661.22
2018-04-01T21:47:16.200Z,100661.22
2018-04-01T21:49:43.830Z,100662.93
2018-04-01T21:52:11.430Z,100656.92
2018-04-01T21:54:39.149Z,100664.16
2018-04-01T21:57:06.752Z,100661.19
2018-04-01T21:59:34.468Z,100658.20
2018-04-01T22:02:02.145Z,100657.77
2018-04-01T22:04:29.800Z,100657.37
2018-04-01T22:06:57.459Z,100662.88
2018-04-01T22:09:25.137Z,100661.98
2018-04-01T22:11:52.749Z,100664.10
2018-04-01T22:14:20.390Z,100669.63
2018-04-01T22:16:47.996Z,100670.50
2018-04-01T22:19:15.624Z,100671.30
2018-04-01T22:21:43.337Z,100675.98
2018-04-01T22:24:10.992Z,100674.62
2018-04-01T22:26:38.599Z,100671.13
2018-04-01T22:29:06.320Z,100672.41
2018-04-01T22:31:33.923Z,100672.91
2018-04-01T22:34:01.648Z,100677.42
2018-04-01T22:36:29.309Z,100677.42
2018-04-01T22:38:56.949Z,100671.63
2018-04-01T22:41:24.635Z,100677.28
2018-04-01T22:43:52.279Z,100678.56
2018-04-01T22:46:20.668Z,100677.61
2018-04-01T22:48:48.342Z,100680.91
2018-04-01T22:51:15.959Z,100691.01
2018-04-01T22:53:43.663Z,100688.23
2018-04-01T22:56:11.338Z,100690.45
2018-04-01T22:58:38.992Z,100693.95
2018-04-01T23:01:06.625Z,100696.97
2018-04-01T23:03:34.250Z,100696.52
2018-04-01T23:06:01.980Z,100703.79
2018-04-01T23:08:29.640Z,100705.45
2018-04-01T23:10:57.276Z,100704.55
2018-04-01T23:13:24.974Z,100706.29
2018-04-01T23:15:52.632Z,100703.77
2018-04-01T23:18:20.316Z,100712.38
2018-04-01T23:20:48.024Z,100715.51
2018-04-01T23:23:15.713Z,100718.55
2018-04-01T23:25:43.420Z,100716.56
2018-04-01T23:28:11.104Z,100724.48
2018-04-01T23:30:38.945Z,100718.26
2018-04-01T23:33:06.683Z,100718.02
2018-04-01T23:35:34.453Z,100727.64
2018-04-01T23:38:02.221Z,100723.59
2018-04-01T23:40:29.951Z,100725.47
2018-04-01T23:42:57.743Z,100721.05
2018-04-01T23:45:25.444Z,100719.49
2018-04-01T23:47:53.127Z,100722.70
2018-04-01T23:50:20.841Z,100726.38
2018-04-01T23:52:48.596Z,100726.56
2018-04-01T23:55:16.300Z,100727.68
2018-04-01T23:57:43.988Z,100731.79
